Time;durP1;ratioP1;P1;durP2;ratioP2;P2;SDS_P1;SDS_P2;PMS_P1;PMS_P2;Temp;Humidity;BMP_temperature;BMP_pressure;BME280_temperature;BME280_humidity;BME280_pressure;Samples;Min_cycle;Max_cycle;Signal;HPM_P1;HPM_P2
2023/10/10 00:01:48;;;;;;;4.07;3.25;;;;;;;-145.63;51.29;39327.38;5043308;28;20079;-67
2023/10/10 00:04:19;;;;;;;4.18;3.00;;;;;;;-145.63;50.93;39364.53;5042941;28;20052;-67
2023/10/10 00:06:44;;;;;;;3.40;2.83;;;;;;;-145.63;51.07;39388.00;5023608;28;20310;-66
2023/10/10 00:09:11;;;;;;;4.30;3.10;;;;;;;-145.63;50.70;39376.28;5023402;28;20040;-65
2023/10/10 00:11:41;;;;;;;3.78;3.47;;;;;;;-145.63;50.07;39372.34;5023739;28;20026;-65
2023/10/10 00:14:18;;;;;;;5.63;3.70;;;;;;;-145.63;50.12;39364.53;5022955;28;20490;-65
2023/10/10 00:16:43;;;;;;;3.90;3.33;;;;;;;-145.63;50.65;39327.38;5027083;28;20045;-66
2023/10/10 00:21:46;;;;;;;3.20;2.90;;;;;;;-145.63;50.81;39364.53;5023465;28;20033;-66
2023/10/10 00:24:14;;;;;;;4.22;3.78;;;;;;;-145.63;50.86;39364.53;5023214;28;20234;-66
2023/10/10 00:26:43;;;;;;;4.03;3.35;;;;;;;-145.63;50.56;39386.06;5023346;28;20046;-66
2023/10/10 00:29:10;;;;;;;3.20;3.00;;;;;;;-145.63;50.47;39374.31;5023269;28;20029;-67
2023/10/10 00:31:43;;;;;;;4.40;3.53;;;;;;;-145.63;50.66;39374.31;5025562;28;20081;-66
2023/10/10 00:34:09;;;;;;;3.72;3.30;;;;;;;-145.63;50.66;39337.16;5031458;28;20089;-66
2023/10/10 00:36:36;;;;;;;6.03;3.33;;;;;;;-145.63;50.70;39388.00;5022949;28;20226;-66
2023/10/10 00:41:51;;;;;;;5.18;3.38;;;;;;;-145.63;50.95;39395.84;5028823;28;20024;-67
2023/10/10 00:44:19;;;;;;;4.35;3.50;;;;;;;-145.63;50.67;39354.75;5042617;28;20056;-67
2023/10/10 00:46:54;;;;;;;4.20;3.22;;;;;;;-145.63;50.76;39423.22;5043068;28;20028;-65
2023/10/10 00:49:34;;;;;;;4.80;3.50;;;;;;;-145.63;50.99;39384.09;5042862;28;20341;-65
2023/10/10 00:52:06;;;;;;;4.50;3.75;;;;;;;-145.63;51.75;39358.66;5042919;28;20125;-66
2023/10/10 00:54:39;;;;;;;5.18;4.10;;;;;;;-145.63;51.54;39354.75;5042921;28;20093;-66
2023/10/10 00:57:08;;;;;;;3.85;3.55;;;;;;;-145.63;52.38;39327.38;5041129;28;20034;-67
2023/10/10 00:59:43;;;;;;;4.75;3.03;;;;;;;-145.63;51.84;39380.19;5035346;28;20065;-67
2023/10/10 01:02:14;;;;;;;3.03;2.83;;;;;;;-145.63;51.35;39388.00;5022802;28;20029;-67
2023/10/10 01:04:55;;;;;;;2.50;2.30;;;;;;;-145.63;50.58;39360.63;5022940;28;20271;-66
2023/10/10 01:07:22;;;;;;;3.67;2.53;;;;;;;-145.63;50.75;39380.19;5022972;28;20038;-67
2023/10/10 01:10:32;;;;;;;2.72;2.53;;;;;;;-145.63;51.24;39368.44;5024275;28;20318;-66
2023/10/10 01:12:42;;;;;;;2.60;2.40;;;;;;;-145.63;50.89;39356.72;5026224;28;20103;-67
2023/10/10 01:15:25;;;;;;;2.90;2.70;;;;;;;-145.63;51.20;39370.41;5026176;28;20050;-66
2023/10/10 01:17:54;;;;;;;2.92;2.72;;;;;;;-145.63;50.99;39348.88;5035336;28;20032;-67
2023/10/10 01:20:34;;;;;;;3.25;2.92;;;;;;;-145.63;50.51;39213.94;5029294;28;20030;-66
2023/10/10 01:23:04;;;;;;;2.97;2.78;;;;;;;-145.63;50.87;39360.63;5026410;28;20036;-67
2023/10/10 01:28:13;;;;;;;3.38;3.08;;;;;;;-145.63;50.83;39368.44;5026204;28;20056;-66
2023/10/10 01:33:22;;;;;;;3.00;2.70;;;;;;;-145.63;50.22;39360.63;5026274;28;20037;-67
2023/10/10 01:35:58;;;;;;;3.75;3.13;;;;;;;-145.63;50.55;39388.00;5026425;28;20183;-67
2023/10/10 01:38:27;;;;;;;3.53;3.22;;;;;;;-145.63;51.06;39366.50;5026142;28;20281;-66
2023/10/10 01:40:57;;;;;;;3.72;2.97;;;;;;;-145.63;50.80;39354.75;5026182;28;20022;-66
2023/10/10 01:43:24;;;;;;;3.50;2.90;;;;;;;-145.63;50.64;39364.53;5045891;28;20023;-66
2023/10/10 01:46:08;;;;;;;4.05;3.47;;;;;;;-145.63;50.49;39368.44;5044693;28;20033;-66
2023/10/10 01:48:43;;;;;;;3.45;3.15;;;;;;;-145.63;50.80;39376.28;5043772;28;20025;-66
2023/10/10 01:51:14;;;;;;;3.90;3.20;;;;;;;-145.63;50.92;39364.53;5044835;28;20029;-67
2023/10/10 01:53:40;;;;;;;4.32;3.38;;;;;;;-145.63;50.51;39368.44;5045471;28;20035;-66
2023/10/10 01:56:11;;;;;;;4.10;3.60;;;;;;;-145.63;51.20;39362.59;5045470;28;20036;-66
2023/10/10 01:58:38;;;;;;;4.28;3.72;;;;;;;-145.63;51.10;39366.50;5045855;28;20021;-67
2023/10/10 02:01:13;;;;;;;4.10;3.70;;;;;;;-145.63;51.08;39335.19;5045501;28;20071;-68
2023/10/10 02:03:42;;;;;;;4.97;4.10;;;;;;;-145.63;51.37;39372.34;5045352;28;20036;-68
2023/10/10 02:06:13;;;;;;;4.45;4.00;;;;;;;-145.63;52.18;39368.44;5044957;28;20021;-67
2023/10/10 02:08:38;;;;;;;5.43;3.65;;;;;;;-145.63;51.71;39372.34;5045274;28;20084;-66
2023/10/10 02:11:06;;;;;;;5.20;3.85;;;;;;;-145.63;51.43;39389.97;5045158;28;20033;-67
2023/10/10 02:13:33;;;;;;;4.35;3.05;;;;;;;-145.63;51.44;39358.66;5045446;28;20028;-66
2023/10/10 02:16:04;;;;;;;4.05;3.65;;;;;;;-145.63;51.25;39372.34;5044663;28;20099;-66
2023/10/10 02:18:39;;;;;;;4.00;3.58;;;;;;;-145.63;51.54;39364.53;5037262;28;20033;-66
2023/10/10 02:21:17;;;;;;;3.50;3.20;;;;;;;-145.63;51.55;39348.88;5025088;28;20030;-69
2023/10/10 02:23:46;;;;;;;3.53;3.20;;;;;;;-145.63;51.35;39364.53;5025510;28;20030;-67
2023/10/10 02:26:54;;;;;;;3.28;2.97;;;;;;;-145.63;51.25;39384.09;5024826;28;20040;-66
2023/10/10 02:29:48;;;;;;;3.55;3.22;;;;;;;-145.63;51.77;39366.50;5024979;28;20365;-66
2023/10/10 02:31:58;;;;;;;3.00;2.80;;;;;;;-145.63;51.56;39366.50;5042167;28;20049;-67
2023/10/10 02:34:23;;;;;;;3.88;3.45;;;;;;;-145.63;52.30;39376.28;5044621;28;20344;-66
2023/10/10 02:37:13;;;;;;;3.47;3.05;;;;;;;-145.63;51.92;39356.72;5034219;28;20030;-67
2023/10/10 02:39:41;;;;;;;3.20;2.90;;;;;;;-145.63;51.58;39384.09;5025050;28;20247;-67
2023/10/10 02:42:13;;;;;;;3.67;2.80;;;;;;;-145.63;51.64;39386.06;5034366;28;20021;-66
2023/10/10 02:44:46;;;;;;;3.30;3.00;;;;;;;-145.63;52.18;39372.34;5044724;28;20147;-67
2023/10/10 02:47:26;;;;;;;3.05;2.72;;;;;;;-145.63;51.68;39366.50;5044663;28;20029;-66
2023/10/10 02:50:00;;;;;;;3.30;3.10;;;;;;;-145.63;52.48;39319.56;5043440;28;20089;-66
2023/10/10 02:52:28;;;;;;;3.50;3.20;;;;;;;-145.63;52.20;39382.13;5044453;28;20033;-66
2023/10/10 02:54:54;;;;;;;4.75;3.63;;;;;;;-145.63;52.36;39376.28;5044575;28;20025;-65
2023/10/10 02:59:59;;;;;;;2.80;2.60;;;;;;;-145.63;52.14;39352.81;5044504;28;20025;-64
2023/10/10 03:02:30;;;;;;;3.20;2.90;;;;;;;-145.63;51.76;39362.59;5044122;28;20042;-65
2023/10/10 03:07:31;;;;;;;6.38;3.00;;;;;;;-145.63;51.87;39362.59;5044375;28;20027;-66
2023/10/10 03:12:41;;;;;;;3.22;2.92;;;;;;;-145.63;52.20;39417.34;5044082;28;20029;-65
2023/10/10 03:25:45;;;;;;;3.00;2.70;;;;;;;-145.63;52.29;39384.09;5024378;28;20032;-66
2023/10/10 03:28:40;;;;;;;3.17;2.88;;;;;;;-145.63;52.27;39399.75;5023899;28;20097;-66
2023/10/10 05:25:22;;;;;;;3.40;3.10;;;;;;;-145.63;53.65;39362.59;5045948;28;20029;-67
2023/10/10 05:27:52;;;;;;;5.47;2.63;;;;;;;-145.63;53.29;39368.44;5046294;28;20079;-67
2023/10/10 05:30:25;;;;;;;3.53;2.88;;;;;;;-145.63;52.78;39374.31;5046031;28;20397;-67
2023/10/10 05:33:02;;;;;;;3.22;2.80;;;;;;;-145.63;52.00;39368.44;5046309;28;20029;-67
2023/10/10 05:35:30;;;;;;;2.88;2.60;;;;;;;-145.63;52.56;39384.09;5045634;28;20071;-66
2023/10/10 05:37:57;;;;;;;3.28;2.97;;;;;;;-145.63;52.06;39364.53;5046153;28;20033;-67
2023/10/10 05:40:24;;;;;;;3.28;2.72;;;;;;;-145.63;52.06;39388.00;5045527;28;20025;-67
2023/10/10 05:42:57;;;;;;;3.17;2.85;;;;;;;-145.63;52.02;39395.84;5045601;28;20021;-66
2023/10/10 05:45:22;;;;;;;5.30;2.78;;;;;;;-145.63;52.32;39352.81;5042404;28;20018;-66
2023/10/10 05:47:48;;;;;;;3.05;2.78;;;;;;;-145.63;51.90;39356.72;5033029;28;20065;-66
2023/10/10 05:50:14;;;;;;;3.92;3.30;;;;;;;-145.63;52.10;39391.91;5034454;28;20140;-65
2023/10/10 05:52:40;;;;;;;4.10;3.70;;;;;;;-145.63;52.27;39389.97;5037465;28;20037;-66
2023/10/10 05:55:07;;;;;;;3.25;2.70;;;;;;;-145.63;52.40;39374.31;5044790;28;20247;-65
2023/10/10 05:57:34;;;;;;;3.47;2.63;;;;;;;-145.63;52.19;39358.66;5045321;28;20207;-67
2023/10/10 05:59:59;;;;;;;2.70;2.50;;;;;;;-145.63;52.30;39360.63;5044945;28;20064;-66
2023/10/10 06:02:27;;;;;;;3.13;2.80;;;;;;;-145.63;52.09;39348.88;5045423;28;20041;-66
2023/10/10 06:04:53;;;;;;;4.28;2.78;;;;;;;-145.63;52.75;39378.22;5044956;28;20045;-67
2023/10/10 06:07:20;;;;;;;4.28;3.55;;;;;;;-145.63;52.94;39421.25;5040533;28;20071;-66
2023/10/10 06:09:51;;;;;;;3.97;3.08;;;;;;;-145.63;52.67;39366.50;5040933;28;20117;-66
2023/10/10 06:12:19;;;;;;;3.70;3.05;;;;;;;-145.63;52.86;39380.19;5038979;28;20029;-66
2023/10/10 06:14:46;;;;;;;3.20;2.90;;;;;;;-145.63;52.76;39364.53;5039070;28;20037;-65
2023/10/10 06:17:12;;;;;;;3.88;3.22;;;;;;;-145.63;52.67;39384.09;5036723;28;20336;-66
2023/10/10 06:19:38;;;;;;;3.08;2.70;;;;;;;-145.63;53.35;39372.34;5039314;28;20038;-67
2023/10/10 06:22:08;;;;;;;4.82;3.35;;;;;;;-145.63;53.35;39344.97;5044735;28;20064;-67
2023/10/10 06:24:39;;;;;;;4.25;3.08;;;;;;;-145.63;53.35;39331.28;5044682;28;20017;-67
2023/10/10 06:27:04;;;;;;;3.72;3.33;;;;;;;-145.63;52.95;39317.59;5042049;28;20027;-66
2023/10/10 06:29:30;;;;;;;3.17;2.88;;;;;;;-145.63;53.28;39337.16;5044833;28;20029;-67
2023/10/10 06:31:58;;;;;;;3.60;3.30;;;;;;;-145.63;53.14;39413.44;5044333;28;20033;-67
2023/10/10 06:34:25;;;;;;;5.00;3.97;;;;;;;-145.63;53.46;39389.97;5044493;28;20031;-67
2023/10/10 06:36:52;;;;;;;3.70;3.40;;;;;;;-145.63;53.02;39372.34;5044418;28;20051;-67
2023/10/10 06:39:18;;;;;;;3.60;3.17;;;;;;;-145.63;52.79;39362.59;5044287;28;20026;-66
2023/10/10 06:41:50;;;;;;;5.60;3.58;;;;;;;-145.63;52.84;39360.63;5044496;28;20079;-68
2023/10/10 06:44:17;;;;;;;3.80;2.80;;;;;;;-145.63;52.90;39350.84;5044556;28;20068;-67
2023/10/10 06:46:47;;;;;;;3.78;3.20;;;;;;;-145.63;53.08;39372.34;5044867;28;20081;-66
2023/10/10 06:49:15;;;;;;;4.63;3.28;;;;;;;-145.63;52.82;39384.09;5044845;28;20030;-66
2023/10/10 06:51:41;;;;;;;6.35;3.30;;;;;;;-145.63;52.38;39321.50;5044567;28;20059;-66
2023/10/10 06:54:19;;;;;;;6.07;3.90;;;;;;;-145.63;53.03;39341.06;5044363;28;20310;-67
2023/10/10 06:59:27;;;;;;;6.80;3.47;;;;;;;-145.63;53.29;39341.06;5043029;28;20229;-67
2023/10/10 07:01:54;;;;;;;6.55;3.30;;;;;;;-145.63;53.22;39348.88;5041733;28;20241;-67
2023/10/10 07:04:19;;;;;;;4.28;3.00;;;;;;;-145.63;53.34;39376.28;5044095;28;20151;-67
2023/10/10 07:06:47;;;;;;;7.32;4.82;;;;;;;-145.63;52.99;39409.53;5043291;28;20033;-67
2023/10/10 07:09:14;;;;;;;4.78;3.70;;;;;;;-145.63;53.20;39391.91;5043985;28;20040;-67
2023/10/10 07:11:41;;;;;;;3.15;2.85;;;;;;;-145.63;52.33;39382.13;5044226;28;20029;-66
2023/10/10 07:14:11;;;;;;;5.30;3.88;;;;;;;-145.63;53.36;39376.28;5042526;28;20025;-66
2023/10/10 07:16:42;;;;;;;5.53;3.20;;;;;;;-145.63;53.15;39380.19;5043420;28;20039;-67
2023/10/10 07:19:19;;;;;;;;;;;;;;;-145.63;53.46;39341.06;5041962;28;20230;-68
2023/10/10 07:21:46;;;;;;;5.78;3.70;;;;;;;-145.63;53.80;39360.63;5040907;28;19976;-67
2023/10/10 07:24:15;;;;;;;5.00;3.50;;;;;;;-145.63;53.49;39380.19;5043103;28;20087;-68
2023/10/10 07:26:43;;;;;;;6.93;6.18;;;;;;;-145.63;53.85;39362.59;5043644;28;20054;-67
2023/10/10 07:29:30;;;;;;;4.05;3.45;;;;;;;-145.63;52.83;39376.28;5043454;28;20034;-67
2023/10/10 07:32:16;;;;;;;3.08;2.78;;;;;;;-145.63;52.67;39360.63;5055767;28;20040;-68
2023/10/10 07:34:51;;;;;;;3.20;2.88;;;;;;;-145.63;51.98;39358.66;5056139;28;20021;-68
2023/10/10 07:37:18;;;;;;;3.67;3.00;;;;;;;-145.63;52.21;39341.06;5043467;28;20029;-67
2023/10/10 07:40:20;;;;;;;4.57;2.65;;;;;;;-145.63;51.96;39329.34;5043615;28;20037;-67
2023/10/10 07:42:49;;;;;;;4.00;2.97;;;;;;;-145.63;52.37;39352.81;5043212;28;20037;-67
2023/10/10 07:45:15;;;;;;;4.00;3.42;;;;;;;-145.63;52.43;39298.03;5043426;28;20245;-67
2023/10/10 07:50:27;;;;;;;4.18;3.47;;;;;;;-145.63;52.61;39329.34;5043587;28;20048;-66
2023/10/10 07:52:55;;;;;;;4.38;3.40;;;;;;;-145.63;52.69;39337.16;5043403;28;20292;-66
2023/10/10 07:55:32;;;;;;;4.82;2.97;;;;;;;-145.63;52.30;39348.88;5043044;28;20036;-66
2023/10/10 07:58:06;;;;;;;3.80;3.40;;;;;;;-145.63;52.09;39341.06;5042058;28;20032;-66
2023/10/10 08:00:40;;;;;;;4.28;3.50;;;;;;;-145.63;52.36;39352.81;5043290;28;20330;-66
2023/10/10 08:03:19;;;;;;;6.25;3.60;;;;;;;-145.63;52.25;39339.13;5043480;28;20096;-66
2023/10/10 08:05:50;;;;;;;4.88;3.40;;;;;;;-145.63;52.86;39325.41;5043294;28;20314;-66
2023/10/10 08:08:19;;;;;;;5.53;3.20;;;;;;;-145.63;52.37;39337.16;5041788;28;20021;-66
2023/10/10 08:10:51;;;;;;;4.03;3.33;;;;;;;-145.63;52.75;39323.47;5043367;28;20029;-67
2023/10/10 08:13:18;;;;;;;5.88;3.53;;;;;;;-145.63;52.13;39454.50;5043049;28;20033;-66
2023/10/10 08:15:56;;;;;;;4.22;3.30;;;;;;;-145.63;51.83;39327.38;5041915;28;20159;-66
2023/10/10 08:18:49;;;;;;;5.15;3.53;;;;;;;-145.63;52.29;39313.69;5034691;28;20093;-66
2023/10/10 08:21:15;;;;;;;7.28;5.47;;;;;;;-145.63;51.89;39315.66;5023188;28;20326;-67
2023/10/10 08:23:48;;;;;;;6.10;3.90;;;;;;;-145.63;51.50;39333.25;5023286;28;20030;-66
2023/10/10 08:26:18;;;;;;;4.07;3.42;;;;;;;-145.63;51.39;39317.59;5023123;28;20025;-68
2023/10/10 08:28:48;;;;;;;5.68;3.35;;;;;;;-145.63;51.46;39292.19;5028950;28;20348;-66
2023/10/10 08:31:15;;;;;;;6.50;3.90;;;;;;;-145.63;51.61;39305.88;5042571;28;20029;-68
2023/10/10 08:33:47;;;;;;;6.10;3.55;;;;;;;-145.63;51.15;39331.28;5042830;28;20085;-66
2023/10/10 08:36:23;;;;;;;;;;;;;;;-145.63;51.16;39262.84;5040649;28;20278;-66
2023/10/10 08:38:50;;;;;;;4.15;3.40;;;;;;;-145.63;50.23;39280.44;5042844;28;19979;-67
2023/10/10 08:41:27;;;;;;;4.43;3.55;;;;;;;-145.63;51.10;39438.84;5042649;28;20021;-67
2023/10/10 08:44:04;;;;;;;7.50;3.35;;;;;;;-145.63;50.03;39343.03;5042739;28;20029;-66
2023/10/10 08:46:30;;;;;;;3.17;2.88;;;;;;;-145.63;50.76;39341.06;5042951;28;20033;-66
2023/10/10 08:48:59;;;;;;;7.57;3.20;;;;;;;-145.63;49.78;39262.84;5042947;28;20025;-67
2023/10/10 08:51:39;;;;;;;4.80;3.35;;;;;;;-145.63;49.82;39274.56;5042552;28;20037;-66
2023/10/10 08:54:09;;;;;;;2.63;2.15;;;;;;;-145.63;48.92;39341.06;5042872;28;20080;-66
2023/10/10 08:56:42;;;;;;;3.13;2.08;;;;;;;-145.63;48.08;39311.72;5041922;28;20030;-67
2023/10/10 08:59:10;;;;;;;4.10;2.50;;;;;;;-145.63;48.88;39317.59;5041715;28;20092;-67
2023/10/10 09:01:36;;;;;;;3.20;2.40;;;;;;;-145.63;48.43;39317.59;5042834;28;20081;-66
2023/10/10 09:04:04;;;;;;;4.32;2.40;;;;;;;-145.63;48.43;39278.47;5042835;28;20033;-67
2023/10/10 09:06:58;;;;;;;3.35;2.83;;;;;;;-145.63;49.11;39307.81;5042468;28;20056;-67
2023/10/10 09:09:34;;;;;;;3.63;2.72;;;;;;;-145.63;48.05;39321.50;5041677;28;20036;-67
2023/10/10 09:12:03;;;;;;;4.82;2.70;;;;;;;-145.63;47.87;39329.34;5041882;28;20332;-67
2023/10/10 09:14:52;;;;;;;2.63;2.33;;;;;;;-145.63;48.40;39317.59;5040720;28;20156;-66
2023/10/10 09:17:35;;;;;;;3.35;2.53;;;;;;;-145.63;48.11;39331.28;5042820;28;20049;-68
2023/10/10 09:22:51;;;;;;;2.58;2.38;;;;;;;-145.63;47.95;39300.00;5042632;28;20322;-66
2023/10/10 09:25:41;;;;;;;3.87;2.60;;;;;;;-145.63;47.85;39335.19;5042793;28;20049;-66
2023/10/10 09:28:08;;;;;;;3.45;2.30;;;;;;;-145.63;48.06;39321.50;5042265;28;20033;-66
2023/10/10 09:30:45;;;;;;;5.25;2.40;;;;;;;-145.63;48.16;39348.88;5043473;28;20029;-66
2023/10/10 09:33:27;;;;;;;3.10;2.47;;;;;;;-145.63;47.94;39337.16;5046064;28;20029;-66
2023/10/10 09:36:08;;;;;;;5.13;2.75;;;;;;;-145.63;47.24;39337.16;5046536;28;20060;-67
2023/10/10 09:38:36;;;;;;;3.92;2.33;;;;;;;-145.63;47.49;39352.81;5045032;28;20095;-67
2023/10/10 09:41:10;;;;;;;3.08;1.95;;;;;;;-145.63;47.13;39339.13;5045828;28;20029;-67
2023/10/10 09:43:49;;;;;;;4.22;2.55;;;;;;;-145.63;47.66;39358.66;5045994;28;20028;-66
2023/10/10 09:46:25;;;;;;;7.25;3.45;;;;;;;-145.63;48.47;39382.13;5044547;28;20063;-67
2023/10/10 09:54:18;;;;;;;3.72;2.10;;;;;;;-145.63;48.01;39301.94;5045469;28;20033;-66
2023/10/10 09:56:56;;;;;;;4.32;2.60;;;;;;;-145.63;47.98;39393.88;5045710;28;20318;-67
2023/10/10 09:59:28;;;;;;;2.88;2.10;;;;;;;-145.63;47.52;39382.13;5045480;28;20030;-67
2023/10/10 10:01:59;;;;;;;3.83;1.98;;;;;;;-145.63;46.59;39325.41;5045595;28;20356;-67
2023/10/10 10:04:28;;;;;;;2.10;1.90;;;;;;;-145.63;46.82;39327.38;5045244;28;20055;-66
2023/10/10 10:07:35;;;;;;;3.05;1.65;;;;;;;-145.63;47.32;39317.59;5045499;28;20317;-67
2023/10/10 10:10:20;;;;;;;1.95;1.70;;;;;;;-145.63;47.11;39323.47;5045325;28;20159;-68
2023/10/10 10:13:09;;;;;;;2.67;1.77;;;;;;;-145.63;46.36;39423.22;5045475;28;20029;-68
2023/10/10 10:15:48;;;;;;;2.15;1.70;;;;;;;-145.63;47.44;39386.06;5045424;28;20053;-67
2023/10/10 10:18:26;;;;;;;2.83;1.90;;;;;;;-145.63;47.57;39346.94;5043827;28;20030;-68
2023/10/10 10:21:29;;;;;;;2.53;1.70;;;;;;;-145.63;46.96;39337.16;5045082;28;20036;-67
2023/10/10 10:24:34;;;;;;;3.33;2.28;;;;;;;-145.63;46.23;39303.91;5045758;28;20337;-68
2023/10/10 10:26:42;;;;;;;10.48;2.40;;;;;;;-145.63;46.65;39258.94;5048010;28;20038;-68
2023/10/10 10:29:16;;;;;;;2.97;2.40;;;;;;;-145.63;46.21;39323.47;5045070;28;20047;-67
2023/10/10 10:31:50;;;;;;;2.95;2.25;;;;;;;-145.63;47.13;39348.88;5043970;28;20034;-66
2023/10/10 10:34:24;;;;;;;2.10;1.90;;;;;;;-145.63;47.17;39337.16;5044839;28;20106;-67
2023/10/10 10:37:06;;;;;;;2.67;2.03;;;;;;;-145.63;47.13;39362.59;5044882;28;20136;-66
2023/10/10 10:39:37;;;;;;;2.30;1.98;;;;;;;-145.63;47.11;39389.97;5044623;28;20037;-65
2023/10/10 10:42:11;;;;;;;4.75;2.60;;;;;;;-145.63;47.11;39403.66;5039149;28;20072;-65
2023/10/10 10:44:44;;;;;;;4.00;2.45;;;;;;;-145.63;47.45;39364.53;5032355;28;20076;-65
2023/10/10 10:47:35;;;;;;;3.50;2.75;;;;;;;-145.63;48.89;39313.69;5033318;28;20034;-67
2023/10/10 10:50:05;;;;;;;4.03;2.63;;;;;;;-145.63;48.55;39327.38;5035936;28;20033;-67
2023/10/10 10:52:44;;;;;;;3.65;2.50;;;;;;;-145.63;48.62;39344.97;5041871;28;20112;-65
2023/10/10 10:55:22;;;;;;;3.25;2.33;;;;;;;-145.63;48.62;39374.31;5044028;28;20325;-65
2023/10/10 10:58:05;;;;;;;4.95;2.58;;;;;;;-145.63;48.05;39352.81;5040788;28;20058;-65
2023/10/10 11:03:35;;;;;;;2.83;2.13;;;;;;;-145.63;47.74;39354.75;5043863;28;20037;-65
2023/10/10 11:06:14;;;;;;;2.83;2.50;;;;;;;-145.63;47.69;39364.53;5044252;28;20092;-66
2023/10/10 11:14:04;;;;;;;4.35;2.20;;;;;;;-145.63;48.90;39303.91;5044153;28;20209;-67
2023/10/10 11:16:44;;;;;;;1.90;1.60;;;;;;;-145.63;48.27;39313.69;5044037;28;20053;-66
2023/10/10 11:20:19;;;;;;;1.50;1.40;;;;;;;-145.63;47.03;39356.72;5043947;28;20030;-67
2023/10/10 11:22:01;;;;;;;2.05;1.48;;;;;;;-145.63;48.24;39333.25;5042129;28;20106;-66
2023/10/10 11:24:31;;;;;;;1.70;1.33;;;;;;;-145.63;46.24;39337.16;5031662;28;20026;-67
2023/10/10 11:29:47;;;;;;;2.95;1.67;;;;;;;-145.63;45.89;39376.28;5030949;28;20037;-66
2023/10/10 11:32:29;;;;;;;1.90;1.40;;;;;;;-145.63;46.88;39372.34;5030881;28;20030;-66
2023/10/10 11:37:48;;;;;;;2.00;1.80;;;;;;;-145.63;46.27;39356.72;5028563;28;20018;-67
2023/10/10 11:42:57;;;;;;;2.92;2.03;;;;;;;-145.63;47.24;39319.56;5028979;28;20028;-67
2023/10/10 11:45:27;;;;;;;1.63;1.52;;;;;;;-145.63;46.21;39315.66;5033873;28;20034;-65
2023/10/10 11:48:00;;;;;;;2.25;1.75;;;;;;;-145.63;46.87;39319.56;5030951;28;20258;-66
2023/10/10 11:50:46;;;;;;;2.72;1.75;;;;;;;-145.63;45.89;39344.97;5031040;28;20035;-65
2023/10/10 11:53:19;;;;;;;4.22;1.80;;;;;;;-145.63;46.02;39376.28;5045829;28;20037;-66
2023/10/10 11:55:47;;;;;;;2.33;1.95;;;;;;;-145.63;45.67;39329.34;5030651;28;20038;-67
2023/10/10 11:58:19;;;;;;;2.97;1.80;;;;;;;-145.63;45.81;39319.56;5030286;28;20052;-66
2023/10/10 12:00:59;;;;;;;2.28;1.85;;;;;;;-145.63;46.21;39364.53;5047383;28;20037;-66
2023/10/10 12:03:41;;;;;;;2.60;1.90;;;;;;;-145.63;46.33;39364.53;5038323;28;20021;-65
2023/10/10 12:06:16;;;;;;;3.58;2.35;;;;;;;-145.63;48.50;39389.97;5043133;28;20111;-66
2023/10/10 12:08:46;;;;;;;3.10;2.00;;;;;;;-145.63;48.64;39421.25;5042946;28;20029;-65
2023/10/10 12:11:15;;;;;;;3.47;1.85;;;;;;;-145.63;48.52;39352.81;5041703;28;20179;-66
2023/10/10 12:13:44;;;;;;;2.60;1.75;;;;;;;-145.63;48.96;39384.09;5043323;28;20025;-66
2023/10/10 12:16:12;;;;;;;2.90;1.92;;;;;;;-145.63;49.24;39395.84;5043138;28;20057;-67
2023/10/10 12:18:49;;;;;;;2.35;1.90;;;;;;;-145.63;49.48;39389.97;5042677;28;20071;-66
2023/10/10 12:21:23;;;;;;;2.13;1.83;;;;;;;-145.63;48.20;39397.78;5042623;28;20104;-65
2023/10/10 12:23:57;;;;;;;3.45;1.95;;;;;;;-145.63;47.98;39368.44;5043431;28;20057;-65
2023/10/10 12:26:26;;;;;;;3.13;1.95;;;;;;;-145.63;48.85;39364.53;5033481;28;20030;-67
2023/10/10 12:28:54;;;;;;;2.08;1.75;;;;;;;-145.63;49.76;39405.59;5023265;28;20038;-67
2023/10/10 12:31:21;;;;;;;3.88;2.13;;;;;;;-145.63;49.29;39376.28;5025685;28;20021;-66
2023/10/10 12:33:48;;;;;;;2.75;1.73;;;;;;;-145.63;50.50;39384.09;5042171;28;20027;-66
2023/10/10 12:36:15;;;;;;;2.25;1.70;;;;;;;-145.63;51.72;39401.69;5042409;28;20314;-66
2023/10/10 12:38:42;;;;;;;3.05;1.50;;;;;;;-145.63;52.36;38586.22;5038459;28;20348;-65
2023/10/10 12:41:11;;;;;;;1.80;1.27;;;;;;;-145.63;52.16;39337.16;5032541;28;20202;-65
2023/10/10 12:43:38;;;;;;;3.55;1.67;;;;;;;-145.63;51.92;39354.75;5042097;28;20040;-66
2023/10/10 12:46:06;;;;;;;2.55;1.80;;;;;;;-145.63;52.61;39296.09;5042680;28;20310;-65
2023/10/10 12:48:39;;;;;;;4.03;1.73;;;;;;;-145.63;51.99;39325.41;5042766;28;20032;-66
2023/10/10 12:51:09;;;;;;;2.40;1.80;;;;;;;-145.63;51.50;39315.66;5040677;28;20038;-66
2023/10/10 12:53:39;;;;;;;3.53;2.78;;;;;;;-145.63;52.88;39374.31;5037122;28;20021;-65
2023/10/10 12:56:12;;;;;;;3.78;2.63;;;;;;;-145.63;51.81;39368.44;5042451;28;20128;-65
2023/10/10 12:58:43;;;;;;;3.47;2.78;;;;;;;-145.63;51.69;39391.91;5042839;28;20028;-65
2023/10/10 13:01:12;;;;;;;3.08;2.78;;;;;;;-145.63;53.15;39374.31;5042453;28;20029;-65
2023/10/10 13:03:38;;;;;;;4.85;3.53;;;;;;;-145.63;53.78;39384.09;5042777;28;20040;-64
2023/10/10 13:06:04;;;;;;;4.93;2.60;;;;;;;-145.63;52.04;39370.41;5044120;28;20298;-66
2023/10/10 13:08:48;;;;;;;5.03;2.83;;;;;;;-145.63;51.73;39368.44;5046312;28;20068;-66
2023/10/10 13:11:16;;;;;;;4.53;2.75;;;;;;;-145.63;52.66;39352.81;5043755;28;20057;-66
2023/10/10 13:13:45;;;;;;;6.18;2.88;;;;;;;-145.63;52.59;39364.53;5037423;28;20036;-67
2023/10/10 13:16:27;;;;;;;3.25;2.65;;;;;;;-145.63;52.84;39395.84;5043165;28;20045;-65
2023/10/10 13:18:55;;;;;;;3.25;2.42;;;;;;;-145.63;51.19;39370.41;5046405;28;20029;-65
2023/10/10 13:21:22;;;;;;;5.25;2.70;;;;;;;-145.63;51.07;38662.47;5043588;28;20033;-66
2023/10/10 13:23:49;;;;;;;3.65;3.10;;;;;;;-145.63;51.67;39376.28;5046149;28;20017;-67
2023/10/10 13:26:16;;;;;;;4.85;3.15;;;;;;;-145.63;51.93;39372.34;5045549;28;20041;-67
2023/10/10 13:28:46;;;;;;;3.55;2.67;;;;;;;-145.63;52.25;39372.34;5045999;28;20041;-67
2023/10/10 13:31:16;;;;;;;3.75;2.72;;;;;;;-145.63;52.42;39384.09;5046004;28;20063;-67
2023/10/10 13:33:43;;;;;;;4.72;2.80;;;;;;;-145.63;52.35;39343.03;5044883;28;20243;-71
2023/10/10 13:36:14;;;;;;;4.72;3.78;;;;;;;-145.63;52.92;39356.72;5044243;28;20370;-65
2023/10/10 13:38:53;;;;;;;3.17;2.88;;;;;;;-145.63;52.56;39348.88;5046054;28;20337;-66
2023/10/10 13:41:23;;;;;;;3.50;2.70;;;;;;;-145.63;52.59;39370.41;5045653;28;20018;-66
2023/10/10 13:43:51;;;;;;;4.07;2.47;;;;;;;-145.63;51.31;39368.44;5028623;28;20029;-66
2023/10/10 13:46:22;;;;;;;2.40;2.17;;;;;;;-145.63;50.63;39378.22;5045911;28;20329;-66
2023/10/10 13:48:48;;;;;;;3.15;2.45;;;;;;;-145.63;50.30;39362.59;5044253;28;20053;-66
2023/10/10 13:51:15;;;;;;;3.42;2.00;;;;;;;-145.63;50.36;39364.53;5036986;28;20117;-65
2023/10/10 13:53:43;;;;;;;4.05;2.45;;;;;;;-145.63;49.59;39380.19;5033583;28;20025;-66
2023/10/10 13:56:10;;;;;;;4.55;2.35;;;;;;;-145.63;50.49;39384.09;5045721;28;20029;-67
2023/10/10 13:58:37;;;;;;;4.38;2.47;;;;;;;-145.63;50.20;39380.19;5044641;28;20028;-69
2023/10/10 14:01:29;;;;;;;2.45;2.20;;;;;;;-145.63;49.83;39388.00;5043822;28;20318;-66
2023/10/10 14:04:00;;;;;;;2.50;2.20;;;;;;;-145.63;49.50;39393.88;5031315;28;20030;-68
2023/10/10 14:06:26;;;;;;;2.55;2.00;;;;;;;-145.63;49.65;39356.72;5025579;28;20057;-67
2023/10/10 14:08:53;;;;;;;3.20;2.28;;;;;;;-145.63;49.01;39382.13;5034523;28;20250;-66
2023/10/10 14:11:22;;;;;;;4.43;2.28;;;;;;;-145.63;48.88;39356.72;5042371;28;20033;-65
2023/10/10 14:13:49;;;;;;;2.97;2.30;;;;;;;-145.63;49.00;39356.72;5045458;28;20036;-65
2023/10/10 14:16:15;;;;;;;4.65;3.10;;;;;;;-145.63;49.36;39391.91;5038342;28;20287;-67
2023/10/10 14:18:47;;;;;;;4.05;3.05;;;;;;;-145.63;50.20;39366.50;5025431;28;20026;-67
2023/10/10 14:21:16;;;;;;;4.60;2.38;;;;;;;-145.63;48.77;39427.13;5025337;28;20044;-66
2023/10/10 14:23:44;;;;;;;6.03;2.70;;;;;;;-145.63;49.15;39391.91;5035547;28;20069;-66
2023/10/10 14:26:13;;;;;;;3.65;2.53;;;;;;;-145.63;49.74;39407.56;5026790;28;20055;-67
2023/10/10 14:28:51;;;;;;;3.35;2.17;;;;;;;-145.63;49.88;39368.44;5024315;28;20215;-69
2023/10/10 14:31:23;;;;;;;3.97;1.95;;;;;;;-145.63;49.23;39407.56;5025580;28;20030;-69
2023/10/10 14:33:50;;;;;;;;;;;;;;;-145.63;48.68;39382.13;5025187;28;20036;-67